Gold Coast Airport
YBCG : now visible

Airfield :











YOU CAN JOIN US ON...

 
LOGIN :

Register | Disclaimer

   EN    FR    IT 

 









Legend :    VFR   Marginal VFR   IFR   Intensive IFR   Very Intensive IFR
Visi :
Ceiling :
>= 8 km
>= 3000ft
5 to 8 km
1000 to 3000 ft
1500m to 5 km
500 to 1000 ft
800 to 1500m
200 to 500 ft
< 800m
< 200 ft
Symbols :   Thunderstorms  Fog  Heavy snow  Heavy precipitations  Wind > 20 kt






- Airport Elevation : 21 ft
- IATA code : OOL


YBCG - Gold Coast

CURRENT METAR :
  • 010800Z AUTO 33008KT 9999 // NCD 21/15 Q1012

EXPIRED METARs :
  • 010730Z AUTO 35009KT 9999 // NCD 21/16 Q1012 RF00.0/000.0
  • 010700Z AUTO 01014KT 9999 // NCD 20/16 Q1012
  • 010630Z AUTO 36015KT 9999 // NCD 21/17 Q1012 RF00.0/000.0
  • 010600Z AUTO 35017KT 9999 // NCD 22/16 Q1011
  • 010530Z AUTO 36018KT 9999 // NCD 22/16 Q1011 RF00.0/000.0
  • 010500Z AUTO 36015KT 9999 // NCD 22/17 Q1011

TAF TAF YBCG
Valid from the 01 at 06:00 until the 02 at 06:00 UTC


010511Z 0106/0206 35014KT CAVOK
FM012100 18005KT 9999 FEW020
FM020000 17010KT 9999 BKN022
YBBB FIR / Oceania



MET'MAP, your aeronautical weather chart ! - Copyright ORBIFLY December 2007 - Disclaimer

ORBIFLY MET'MAP TEAM :

Programming & Development : Alexandra Zaïnal
Concept & original design : Baudouin d'Aumeries
Assistance for programming : Marc-Olivier Méhu
Technical & hardware support : Manuel Goepfert

Contact : metmap@orbifly.com




SOURCES & CREDITS :

   NOAA       Earth
Advisory